sensor_id;sensor_type;location;lat;lon;timestamp;temperature;humidity
37998;DHT22;24079;51.824;4.682;2023-06-14T00:00:59;20.60;99.90
37998;DHT22;24079;51.824;4.682;2023-06-14T00:03:25;20.60;99.90
37998;DHT22;24079;51.824;4.682;2023-06-14T00:05:51;20.60;99.90
37998;DHT22;24079;51.824;4.682;2023-06-14T00:08:17;20.50;99.90
37998;DHT22;24079;51.824;4.682;2023-06-14T00:10:44;20.50;99.90
37998;DHT22;24079;51.824;4.682;2023-06-14T00:13:10;20.60;99.90
37998;DHT22;24079;51.824;4.682;2023-06-14T00:15:36;20.60;99.90
37998;DHT22;24079;51.824;4.682;2023-06-14T00:18:02;20.50;99.90
37998;DHT22;24079;51.824;4.682;2023-06-14T00:20:29;20.50;99.90
37998;DHT22;24079;51.824;4.682;2023-06-14T00:22:56;20.40;99.90
37998;DHT22;24079;51.824;4.682;2023-06-14T00:25:22;20.40;99.90
37998;DHT22;24079;51.824;4.682;2023-06-14T00:27:51;20.50;99.90
37998;DHT22;24079;51.824;4.682;2023-06-14T00:30:18;20.40;99.90
37998;DHT22;24079;51.824;4.682;2023-06-14T00:32:44;20.30;99.90
37998;DHT22;24079;51.824;4.682;2023-06-14T00:35:11;20.30;99.90
37998;DHT22;24079;51.824;4.682;2023-06-14T00:37:38;20.30;99.90
37998;DHT22;24079;51.824;4.682;2023-06-14T00:40:04;20.20;99.90
37998;DHT22;24079;51.824;4.682;2023-06-14T00:42:30;20.20;99.90
37998;DHT22;24079;51.824;4.682;2023-06-14T00:44:57;20.20;99.90
37998;DHT22;24079;51.824;4.682;2023-06-14T00:47:24;20.20;99.90
37998;DHT22;24079;51.824;4.682;2023-06-14T00:49:51;20.20;99.90
37998;DHT22;24079;51.824;4.682;2023-06-14T00:52:18;20.20;99.90
37998;DHT22;24079;51.824;4.682;2023-06-14T00:54:44;20.20;99.90
37998;DHT22;24079;51.824;4.682;2023-06-14T00:57:11;20.20;99.90
37998;DHT22;24079;51.824;4.682;2023-06-14T00:59:46;20.20;99.90
37998;DHT22;24079;51.824;4.682;2023-06-14T01:02:13;20.10;99.90
37998;DHT22;24079;51.824;4.682;2023-06-14T01:04:46;20.00;99.90
37998;DHT22;24079;51.824;4.682;2023-06-14T01:10:20;19.90;99.90
37998;DHT22;24079;51.824;4.682;2023-06-14T01:15:25;19.80;99.90
37998;DHT22;24079;51.824;4.682;2023-06-14T01:17:52;19.80;99.90
37998;DHT22;24079;51.824;4.682;2023-06-14T01:20:20;19.80;99.90
37998;DHT22;24079;51.824;4.682;2023-06-14T01:22:53;19.80;99.90
37998;DHT22;24079;51.824;4.682;2023-06-14T01:25:20;19.70;99.90
37998;DHT22;24079;51.824;4.682;2023-06-14T01:27:50;19.70;99.90
37998;DHT22;24079;51.824;4.682;2023-06-14T01:30:17;19.70;99.90
37998;DHT22;24079;51.824;4.682;2023-06-14T01:32:44;19.60;99.90
37998;DHT22;24079;51.824;4.682;2023-06-14T01:35:11;19.70;99.90
37998;DHT22;24079;51.824;4.682;2023-06-14T01:37:37;19.60;99.90
37998;DHT22;24079;51.824;4.682;2023-06-14T01:40:04;19.60;99.90
37998;DHT22;24079;51.824;4.682;2023-06-14T01:42:34;19.60;99.90
37998;DHT22;24079;51.824;4.682;2023-06-14T01:45:02;19.60;99.90
37998;DHT22;24079;51.824;4.682;2023-06-14T01:47:30;19.50;99.90
37998;DHT22;24079;51.824;4.682;2023-06-14T01:49:56;19.50;99.90
37998;DHT22;24079;51.824;4.682;2023-06-14T01:52:22;19.50;99.90
37998;DHT22;24079;51.824;4.682;2023-06-14T01:54:50;19.40;99.90
37998;DHT22;24079;51.824;4.682;2023-06-14T01:57:16;19.50;99.90
37998;DHT22;24079;51.824;4.682;2023-06-14T01:59:42;19.40;99.90
37998;DHT22;24079;51.824;4.682;2023-06-14T02:02:14;19.40;99.90
37998;DHT22;24079;51.824;4.682;2023-06-14T02:04:41;19.40;99.90
37998;DHT22;24079;51.824;4.682;2023-06-14T02:07:07;19.40;99.90
37998;DHT22;24079;51.824;4.682;2023-06-14T02:09:34;19.40;99.90
37998;DHT22;24079;51.824;4.682;2023-06-14T02:12:01;19.40;99.90
37998;DHT22;24079;51.824;4.682;2023-06-14T02:14:27;19.40;99.90
37998;DHT22;24079;51.824;4.682;2023-06-14T02:16:53;19.30;99.90
37998;DHT22;24079;51.824;4.682;2023-06-14T02:19:20;19.20;99.90
37998;DHT22;24079;51.824;4.682;2023-06-14T02:21:47;19.20;99.90
37998;DHT22;24079;51.824;4.682;2023-06-14T02:24:13;19.20;99.90
37998;DHT22;24079;51.824;4.682;2023-06-14T02:26:41;19.10;99.90
37998;DHT22;24079;51.824;4.682;2023-06-14T02:29:07;19.10;99.90
37998;DHT22;24079;51.824;4.682;2023-06-14T02:31:38;19.10;99.90
37998;DHT22;24079;51.824;4.682;2023-06-14T02:34:03;19.10;99.90
37998;DHT22;24079;51.824;4.682;2023-06-14T02:36:29;19.10;99.90
37998;DHT22;24079;51.824;4.682;2023-06-14T02:38:56;19.00;99.90
37998;DHT22;24079;51.824;4.682;2023-06-14T02:41:25;19.00;99.90
37998;DHT22;24079;51.824;4.682;2023-06-14T02:43:52;19.00;99.90
37998;DHT22;24079;51.824;4.682;2023-06-14T02:46:18;19.00;99.90
37998;DHT22;24079;51.824;4.682;2023-06-14T02:48:44;18.90;99.90
37998;DHT22;24079;51.824;4.682;2023-06-14T02:51:11;18.90;99.90
37998;DHT22;24079;51.824;4.682;2023-06-14T02:53:38;18.90;99.90
37998;DHT22;24079;51.824;4.682;2023-06-14T02:56:04;18.90;99.90
37998;DHT22;24079;51.824;4.682;2023-06-14T02:58:30;18.90;99.90
37998;DHT22;24079;51.824;4.682;2023-06-14T03:00:56;18.90;99.90
37998;DHT22;24079;51.824;4.682;2023-06-14T03:03:23;18.90;99.90
37998;DHT22;24079;51.824;4.682;2023-06-14T03:05:50;18.90;99.90
37998;DHT22;24079;51.824;4.682;2023-06-14T03:08:17;18.80;99.90
37998;DHT22;24079;51.824;4.682;2023-06-14T03:10:48;18.80;99.90
37998;DHT22;24079;51.824;4.682;2023-06-14T03:13:15;18.80;99.90
37998;DHT22;24079;51.824;4.682;2023-06-14T03:15:42;18.80;99.90
37998;DHT22;24079;51.824;4.682;2023-06-14T03:18:09;18.70;99.90
37998;DHT22;24079;51.824;4.682;2023-06-14T03:20:38;18.70;99.90
37998;DHT22;24079;51.824;4.682;2023-06-14T03:23:04;18.70;99.90
37998;DHT22;24079;51.824;4.682;2023-06-14T03:25:31;18.60;99.90
37998;DHT22;24079;51.824;4.682;2023-06-14T03:28:01;18.60;99.90
37998;DHT22;24079;51.824;4.682;2023-06-14T03:30:30;18.60;99.90
37998;DHT22;24079;51.824;4.682;2023-06-14T03:32:56;18.50;99.90
37998;DHT22;24079;51.824;4.682;2023-06-14T03:35:23;18.40;99.90
37998;DHT22;24079;51.824;4.682;2023-06-14T03:37:49;18.40;99.90
37998;DHT22;24079;51.824;4.682;2023-06-14T03:40:17;18.40;99.90
37998;DHT22;24079;51.824;4.682;2023-06-14T03:42:43;18.40;99.90
37998;DHT22;24079;51.824;4.682;2023-06-14T03:45:09;18.40;99.90
37998;DHT22;24079;51.824;4.682;2023-06-14T03:47:35;18.40;99.90
37998;DHT22;24079;51.824;4.682;2023-06-14T03:50:04;18.40;99.90
37998;DHT22;24079;51.824;4.682;2023-06-14T03:52:31;18.50;99.90
37998;DHT22;24079;51.824;4.682;2023-06-14T03:54:57;18.50;99.90
37998;DHT22;24079;51.824;4.682;2023-06-14T03:57:24;18.40;99.90
37998;DHT22;24079;51.824;4.682;2023-06-14T03:59:50;18.40;99.90
37998;DHT22;24079;51.824;4.682;2023-06-14T04:02:16;18.40;99.90
37998;DHT22;24079;51.824;4.682;2023-06-14T04:04:43;18.30;99.90
37998;DHT22;24079;51.824;4.682;2023-06-14T04:07:11;18.30;99.90
37998;DHT22;24079;51.824;4.682;2023-06-14T04:09:37;18.30;99.90
37998;DHT22;24079;51.824;4.682;2023-06-14T04:12:04;18.30;99.90
37998;DHT22;24079;51.824;4.682;2023-06-14T04:14:29;18.40;99.90
37998;DHT22;24079;51.824;4.682;2023-06-14T04:16:56;18.30;99.90
37998;DHT22;24079;51.824;4.682;2023-06-14T04:19:22;18.30;99.90
37998;DHT22;24079;51.824;4.682;2023-06-14T04:21:48;18.30;99.90
37998;DHT22;24079;51.824;4.682;2023-06-14T04:24:14;18.30;99.90
37998;DHT22;24079;51.824;4.682;2023-06-14T04:26:42;18.20;99.90
37998;DHT22;24079;51.824;4.682;2023-06-14T04:29:14;18.10;99.90
37998;DHT22;24079;51.824;4.682;2023-06-14T04:31:45;18.10;99.90
37998;DHT22;24079;51.824;4.682;2023-06-14T04:34:12;18.20;99.90
37998;DHT22;24079;51.824;4.682;2023-06-14T04:36:47;18.20;99.90
37998;DHT22;24079;51.824;4.682;2023-06-14T04:39:19;18.30;99.90
37998;DHT22;24079;51.824;4.682;2023-06-14T04:41:45;18.30;99.90
37998;DHT22;24079;51.824;4.682;2023-06-14T04:44:10;18.30;99.90
37998;DHT22;24079;51.824;4.682;2023-06-14T04:46:38;18.40;99.90
37998;DHT22;24079;51.824;4.682;2023-06-14T04:49:15;18.40;99.90
37998;DHT22;24079;51.824;4.682;2023-06-14T04:51:44;18.70;99.90
37998;DHT22;24079;51.824;4.682;2023-06-14T04:54:11;19.00;99.90
37998;DHT22;24079;51.824;4.682;2023-06-14T04:56:48;19.20;99.90
37998;DHT22;24079;51.824;4.682;2023-06-14T04:59:14;19.40;99.90
37998;DHT22;24079;51.824;4.682;2023-06-14T05:01:40;19.60;99.90
37998;DHT22;24079;51.824;4.682;2023-06-14T05:04:06;20.00;99.90
37998;DHT22;24079;51.824;4.682;2023-06-14T05:06:32;20.50;99.90
37998;DHT22;24079;51.824;4.682;2023-06-14T05:08:58;21.10;99.90
37998;DHT22;24079;51.824;4.682;2023-06-14T05:11:24;21.70;99.90
37998;DHT22;24079;51.824;4.682;2023-06-14T05:13:50;21.60;99.90
37998;DHT22;24079;51.824;4.682;2023-06-14T05:16:16;21.00;99.90
37998;DHT22;24079;51.824;4.682;2023-06-14T05:18:45;20.50;99.90
37998;DHT22;24079;51.824;4.682;2023-06-14T05:21:11;20.20;99.90
37998;DHT22;24079;51.824;4.682;2023-06-14T05:23:36;19.90;99.90
37998;DHT22;24079;51.824;4.682;2023-06-14T05:26:03;19.70;99.90
37998;DHT22;24079;51.824;4.682;2023-06-14T05:28:30;19.60;99.90
37998;DHT22;24079;51.824;4.682;2023-06-14T05:30:56;19.50;99.90
37998;DHT22;24079;51.824;4.682;2023-06-14T05:33:24;19.50;99.90
37998;DHT22;24079;51.824;4.682;2023-06-14T05:35:50;19.50;99.90
37998;DHT22;24079;51.824;4.682;2023-06-14T05:38:16;19.60;99.90
37998;DHT22;24079;51.824;4.682;2023-06-14T05:40:42;19.70;99.90
37998;DHT22;24079;51.824;4.682;2023-06-14T05:43:08;19.70;99.90
37998;DHT22;24079;51.824;4.682;2023-06-14T05:45:34;19.80;99.90
37998;DHT22;24079;51.824;4.682;2023-06-14T05:47:59;19.80;99.90
37998;DHT22;24079;51.824;4.682;2023-06-14T05:50:25;20.00;99.90
37998;DHT22;24079;51.824;4.682;2023-06-14T05:52:51;19.90;99.90
37998;DHT22;24079;51.824;4.682;2023-06-14T05:55:17;19.90;99.90
37998;DHT22;24079;51.824;4.682;2023-06-14T05:57:43;20.00;99.90
37998;DHT22;24079;51.824;4.682;2023-06-14T06:00:10;20.20;99.90
37998;DHT22;24079;51.824;4.682;2023-06-14T06:02:41;20.10;99.90
37998;DHT22;24079;51.824;4.682;2023-06-14T06:05:09;20.10;99.90
37998;DHT22;24079;51.824;4.682;2023-06-14T06:07:36;20.10;99.90
37998;DHT22;24079;51.824;4.682;2023-06-14T06:10:04;20.20;99.90
37998;DHT22;24079;51.824;4.682;2023-06-14T06:12:31;20.30;99.90
37998;DHT22;24079;51.824;4.682;2023-06-14T06:14:59;20.30;99.90
37998;DHT22;24079;51.824;4.682;2023-06-14T06:17:26;20.30;99.90
37998;DHT22;24079;51.824;4.682;2023-06-14T06:19:52;20.50;99.90
37998;DHT22;24079;51.824;4.682;2023-06-14T06:22:18;20.80;99.90
37998;DHT22;24079;51.824;4.682;2023-06-14T06:24:44;20.90;99.90
37998;DHT22;24079;51.824;4.682;2023-06-14T06:27:10;21.30;99.90
37998;DHT22;24079;51.824;4.682;2023-06-14T06:29:38;22.20;99.90
37998;DHT22;24079;51.824;4.682;2023-06-14T06:32:05;22.80;99.90
37998;DHT22;24079;51.824;4.682;2023-06-14T06:34:31;22.80;99.90
37998;DHT22;24079;51.824;4.682;2023-06-14T06:36:57;22.90;99.90
37998;DHT22;24079;51.824;4.682;2023-06-14T06:39:23;23.30;99.90
37998;DHT22;24079;51.824;4.682;2023-06-14T06:41:49;24.50;99.90
37998;DHT22;24079;51.824;4.682;2023-06-14T06:44:15;25.30;99.90
37998;DHT22;24079;51.824;4.682;2023-06-14T06:46:41;25.40;99.90
37998;DHT22;24079;51.824;4.682;2023-06-14T06:49:09;25.40;99.90
37998;DHT22;24079;51.824;4.682;2023-06-14T06:54:06;24.50;99.90
37998;DHT22;24079;51.824;4.682;2023-06-14T06:56:32;24.50;99.90
37998;DHT22;24079;51.824;4.682;2023-06-14T06:58:58;24.00;99.90
37998;DHT22;24079;51.824;4.682;2023-06-14T07:01:25;23.50;99.90
37998;DHT22;24079;51.824;4.682;2023-06-14T07:03:52;23.20;99.90
37998;DHT22;24079;51.824;4.682;2023-06-14T07:06:18;23.00;99.90
37998;DHT22;24079;51.824;4.682;2023-06-14T07:08:44;22.80;99.90
37998;DHT22;24079;51.824;4.682;2023-06-14T07:11:11;22.60;99.90
37998;DHT22;24079;51.824;4.682;2023-06-14T07:13:37;22.50;99.90
37998;DHT22;24079;51.824;4.682;2023-06-14T07:16:04;22.80;99.90
37998;DHT22;24079;51.824;4.682;2023-06-14T07:18:30;22.90;99.90
37998;DHT22;24079;51.824;4.682;2023-06-14T07:20:56;22.90;99.90
37998;DHT22;24079;51.824;4.682;2023-06-14T07:23:23;23.20;99.90
37998;DHT22;24079;51.824;4.682;2023-06-14T07:25:49;23.90;99.90
37998;DHT22;24079;51.824;4.682;2023-06-14T07:28:16;23.80;99.90
37998;DHT22;24079;51.824;4.682;2023-06-14T07:30:43;23.20;99.90
37998;DHT22;24079;51.824;4.682;2023-06-14T07:33:09;22.80;99.90
37998;DHT22;24079;51.824;4.682;2023-06-14T07:35:38;22.70;99.90
37998;DHT22;24079;51.824;4.682;2023-06-14T07:38:04;22.90;99.90
37998;DHT22;24079;51.824;4.682;2023-06-14T07:40:29;23.60;99.90
37998;DHT22;24079;51.824;4.682;2023-06-14T07:42:55;24.30;99.90
37998;DHT22;24079;51.824;4.682;2023-06-14T07:45:21;25.10;99.90
37998;DHT22;24079;51.824;4.682;2023-06-14T07:47:47;25.50;99.90
37998;DHT22;24079;51.824;4.682;2023-06-14T07:50:13;25.50;99.90
37998;DHT22;24079;51.824;4.682;2023-06-14T07:52:39;25.80;99.90
37998;DHT22;24079;51.824;4.682;2023-06-14T07:55:06;26.10;99.90
37998;DHT22;24079;51.824;4.682;2023-06-14T07:57:32;26.60;99.90
37998;DHT22;24079;51.824;4.682;2023-06-14T07:59:58;27.70;99.90
37998;DHT22;24079;51.824;4.682;2023-06-14T08:02:24;28.00;99.90
37998;DHT22;24079;51.824;4.682;2023-06-14T08:04:50;28.60;99.90
37998;DHT22;24079;51.824;4.682;2023-06-14T08:07:16;29.40;99.90
37998;DHT22;24079;51.824;4.682;2023-06-14T08:09:42;30.00;99.90
37998;DHT22;24079;51.824;4.682;2023-06-14T08:12:08;30.40;99.90
37998;DHT22;24079;51.824;4.682;2023-06-14T08:14:35;30.40;99.90
37998;DHT22;24079;51.824;4.682;2023-06-14T08:17:01;30.80;99.90
37998;DHT22;24079;51.824;4.682;2023-06-14T08:19:27;30.30;99.90
37998;DHT22;24079;51.824;4.682;2023-06-14T08:21:52;30.60;99.90
37998;DHT22;24079;51.824;4.682;2023-06-14T08:24:21;31.10;99.90
37998;DHT22;24079;51.824;4.682;2023-06-14T08:26:50;31.60;99.90
37998;DHT22;24079;51.824;4.682;2023-06-14T08:29:15;32.10;99.50
37998;DHT22;24079;51.824;4.682;2023-06-14T08:31:41;32.40;98.70
37998;DHT22;24079;51.824;4.682;2023-06-14T08:34:06;32.50;97.50
37998;DHT22;24079;51.824;4.682;2023-06-14T08:36:32;32.10;96.10
37998;DHT22;24079;51.824;4.682;2023-06-14T08:38:58;32.30;96.30
37998;DHT22;24079;51.824;4.682;2023-06-14T08:41:24;32.50;96.10
37998;DHT22;24079;51.824;4.682;2023-06-14T08:43:50;32.50;95.90
37998;DHT22;24079;51.824;4.682;2023-06-14T08:46:18;32.60;95.00
37998;DHT22;24079;51.824;4.682;2023-06-14T08:48:51;32.20;94.70
37998;DHT22;24079;51.824;4.682;2023-06-14T08:51:20;31.80;94.70
37998;DHT22;24079;51.824;4.682;2023-06-14T08:53:53;31.30;94.80
37998;DHT22;24079;51.824;4.682;2023-06-14T08:56:19;31.10;95.10
37998;DHT22;24079;51.824;4.682;2023-06-14T08:58:47;31.30;96.00
37998;DHT22;24079;51.824;4.682;2023-06-14T09:01:13;31.70;95.70
37998;DHT22;24079;51.824;4.682;2023-06-14T09:03:40;32.10;95.90
37998;DHT22;24079;51.824;4.682;2023-06-14T09:06:08;31.90;95.30
37998;DHT22;24079;51.824;4.682;2023-06-14T09:08:43;31.80;95.20
37998;DHT22;24079;51.824;4.682;2023-06-14T09:11:13;31.80;95.40
37998;DHT22;24079;51.824;4.682;2023-06-14T09:13:40;31.20;95.10
37998;DHT22;24079;51.824;4.682;2023-06-14T09:16:08;31.10;95.50
37998;DHT22;24079;51.824;4.682;2023-06-14T09:18:38;31.00;94.90
37998;DHT22;24079;51.824;4.682;2023-06-14T09:21:08;30.80;95.30
37998;DHT22;24079;51.824;4.682;2023-06-14T09:23:43;30.50;95.70
37998;DHT22;24079;51.824;4.682;2023-06-14T09:26:14;30.60;94.90
37998;DHT22;24079;51.824;4.682;2023-06-14T09:28:45;30.60;94.60
37998;DHT22;24079;51.824;4.682;2023-06-14T09:31:13;30.30;94.80
37998;DHT22;24079;51.824;4.682;2023-06-14T09:33:47;30.10;94.30
37998;DHT22;24079;51.824;4.682;2023-06-14T09:36:22;30.20;94.70
37998;DHT22;24079;51.824;4.682;2023-06-14T09:41:20;30.30;94.70
37998;DHT22;24079;51.824;4.682;2023-06-14T09:43:47;30.60;94.50
37998;DHT22;24079;51.824;4.682;2023-06-14T09:46:13;30.70;95.30
37998;DHT22;24079;51.824;4.682;2023-06-14T09:48:39;30.90;94.50
37998;DHT22;24079;51.824;4.682;2023-06-14T09:51:10;30.70;94.10
37998;DHT22;24079;51.824;4.682;2023-06-14T09:53:36;30.70;93.70
37998;DHT22;24079;51.824;4.682;2023-06-14T09:56:04;30.60;93.00
37998;DHT22;24079;51.824;4.682;2023-06-14T09:58:32;31.00;94.10
37998;DHT22;24079;51.824;4.682;2023-06-14T10:01:01;31.30;93.70
37998;DHT22;24079;51.824;4.682;2023-06-14T10:03:28;31.20;93.60
37998;DHT22;24079;51.824;4.682;2023-06-14T10:05:58;31.40;92.90
37998;DHT22;24079;51.824;4.682;2023-06-14T10:08:30;31.00;92.60
37998;DHT22;24079;51.824;4.682;2023-06-14T10:10:59;30.80;93.00
37998;DHT22;24079;51.824;4.682;2023-06-14T10:13:26;31.00;92.40
37998;DHT22;24079;51.824;4.682;2023-06-14T10:18:53;30.60;90.50
37998;DHT22;24079;51.824;4.682;2023-06-14T10:24:01;30.70;90.60
37998;DHT22;24079;51.824;4.682;2023-06-14T10:26:29;30.70;90.60
37998;DHT22;24079;51.824;4.682;2023-06-14T10:29:07;30.90;90.90
37998;DHT22;24079;51.824;4.682;2023-06-14T10:31:47;31.00;90.50
37998;DHT22;24079;51.824;4.682;2023-06-14T10:34:23;31.30;90.60
37998;DHT22;24079;51.824;4.682;2023-06-14T10:37:10;30.90;88.40
37998;DHT22;24079;51.824;4.682;2023-06-14T10:39:46;30.60;89.40
37998;DHT22;24079;51.824;4.682;2023-06-14T10:42:13;30.60;89.00
37998;DHT22;24079;51.824;4.682;2023-06-14T10:44:50;30.70;90.00
37998;DHT22;24079;51.824;4.682;2023-06-14T10:47:39;31.10;90.80
37998;DHT22;24079;51.824;4.682;2023-06-14T10:50:10;31.20;88.80
37998;DHT22;24079;51.824;4.682;2023-06-14T10:52:42;31.00;89.20
37998;DHT22;24079;51.824;4.682;2023-06-14T10:55:14;31.10;88.80
37998;DHT22;24079;51.824;4.682;2023-06-14T11:00:08;31.70;90.00
37998;DHT22;24079;51.824;4.682;2023-06-14T11:05:57;31.90;87.90
37998;DHT22;24079;51.824;4.682;2023-06-14T11:11:09;31.40;86.80
37998;DHT22;24079;51.824;4.682;2023-06-14T11:13:41;31.60;86.60
37998;DHT22;24079;51.824;4.682;2023-06-14T11:16:11;31.30;86.60
37998;DHT22;24079;51.824;4.682;2023-06-14T11:18:37;31.00;87.10
37998;DHT22;24079;51.824;4.682;2023-06-14T11:21:04;31.00;88.10
37998;DHT22;24079;51.824;4.682;2023-06-14T11:23:30;31.30;87.50
37998;DHT22;24079;51.824;4.682;2023-06-14T11:25:56;31.50;88.60
37998;DHT22;24079;51.824;4.682;2023-06-14T11:28:22;31.30;86.30
37998;DHT22;24079;51.824;4.682;2023-06-14T11:30:59;31.20;85.70
37998;DHT22;24079;51.824;4.682;2023-06-14T11:33:25;31.20;86.70
37998;DHT22;24079;51.824;4.682;2023-06-14T11:35:51;31.40;86.10
37998;DHT22;24079;51.824;4.682;2023-06-14T11:38:17;31.30;84.80
37998;DHT22;24079;51.824;4.682;2023-06-14T11:40:43;31.60;83.90
37998;DHT22;24079;51.824;4.682;2023-06-14T11:43:09;31.20;83.40
37998;DHT22;24079;51.824;4.682;2023-06-14T11:45:35;30.90;82.80
37998;DHT22;24079;51.824;4.682;2023-06-14T11:48:01;31.20;85.10
37998;DHT22;24079;51.824;4.682;2023-06-14T11:50:27;31.80;85.80
37998;DHT22;24079;51.824;4.682;2023-06-14T11:52:55;31.80;83.30
37998;DHT22;24079;51.824;4.682;2023-06-14T11:55:25;31.60;82.70
37998;DHT22;24079;51.824;4.682;2023-06-14T11:57:53;31.60;83.80
37998;DHT22;24079;51.824;4.682;2023-06-14T12:00:19;31.60;84.30
37998;DHT22;24079;51.824;4.682;2023-06-14T12:02:53;31.00;82.20
37998;DHT22;24079;51.824;4.682;2023-06-14T12:05:22;31.00;82.70
37998;DHT22;24079;51.824;4.682;2023-06-14T12:07:49;31.40;83.50
37998;DHT22;24079;51.824;4.682;2023-06-14T12:10:16;31.60;84.30
37998;DHT22;24079;51.824;4.682;2023-06-14T12:12:42;31.70;83.90
37998;DHT22;24079;51.824;4.682;2023-06-14T12:15:10;31.70;84.20
37998;DHT22;24079;51.824;4.682;2023-06-14T12:17:39;31.60;83.70
37998;DHT22;24079;51.824;4.682;2023-06-14T12:20:09;31.70;83.50
37998;DHT22;24079;51.824;4.682;2023-06-14T12:22:50;32.00;84.90
37998;DHT22;24079;51.824;4.682;2023-06-14T12:25:31;32.00;83.60
37998;DHT22;24079;51.824;4.682;2023-06-14T12:28:07;31.50;83.00
37998;DHT22;24079;51.824;4.682;2023-06-14T12:30:34;31.20;83.10
37998;DHT22;24079;51.824;4.682;2023-06-14T12:33:02;31.50;84.30
37998;DHT22;24079;51.824;4.682;2023-06-14T12:35:28;31.80;84.70
37998;DHT22;24079;51.824;4.682;2023-06-14T12:37:54;31.80;83.70
37998;DHT22;24079;51.824;4.682;2023-06-14T12:40:20;31.90;84.40
37998;DHT22;24079;51.824;4.682;2023-06-14T12:42:46;32.00;83.80
37998;DHT22;24079;51.824;4.682;2023-06-14T12:45:13;31.80;82.80
37998;DHT22;24079;51.824;4.682;2023-06-14T12:47:39;31.90;83.90
37998;DHT22;24079;51.824;4.682;2023-06-14T12:50:05;31.40;82.50
37998;DHT22;24079;51.824;4.682;2023-06-14T12:52:31;31.30;84.30
37998;DHT22;24079;51.824;4.682;2023-06-14T12:55:01;31.60;83.90
37998;DHT22;24079;51.824;4.682;2023-06-14T12:57:27;31.90;85.20
37998;DHT22;24079;51.824;4.682;2023-06-14T12:59:53;32.00;83.70
37998;DHT22;24079;51.824;4.682;2023-06-14T13:02:20;31.80;82.70
37998;DHT22;24079;51.824;4.682;2023-06-14T13:04:50;31.40;81.70
37998;DHT22;24079;51.824;4.682;2023-06-14T13:07:16;31.60;82.20
37998;DHT22;24079;51.824;4.682;2023-06-14T13:09:42;31.50;82.10
37998;DHT22;24079;51.824;4.682;2023-06-14T13:12:10;31.20;82.50
37998;DHT22;24079;51.824;4.682;2023-06-14T13:14:39;31.00;83.10
37998;DHT22;24079;51.824;4.682;2023-06-14T13:17:08;31.00;82.60
37998;DHT22;24079;51.824;4.682;2023-06-14T13:19:34;30.50;82.60
37998;DHT22;24079;51.824;4.682;2023-06-14T13:22:01;30.20;82.50
37998;DHT22;24079;51.824;4.682;2023-06-14T13:24:27;30.10;82.20
37998;DHT22;24079;51.824;4.682;2023-06-14T13:26:56;30.40;82.20
37998;DHT22;24079;51.824;4.682;2023-06-14T13:29:23;30.50;83.10
37998;DHT22;24079;51.824;4.682;2023-06-14T13:31:49;30.80;82.70
37998;DHT22;24079;51.824;4.682;2023-06-14T13:34:16;31.00;82.40
37998;DHT22;24079;51.824;4.682;2023-06-14T13:36:42;30.80;83.00
37998;DHT22;24079;51.824;4.682;2023-06-14T13:39:08;30.60;82.10
37998;DHT22;24079;51.824;4.682;2023-06-14T13:41:34;30.50;82.40
37998;DHT22;24079;51.824;4.682;2023-06-14T13:44:01;30.40;82.40
37998;DHT22;24079;51.824;4.682;2023-06-14T13:46:30;30.20;82.10
37998;DHT22;24079;51.824;4.682;2023-06-14T13:48:56;29.90;81.80
37998;DHT22;24079;51.824;4.682;2023-06-14T13:51:23;29.50;81.80
37998;DHT22;24079;51.824;4.682;2023-06-14T13:53:49;29.60;82.50
37998;DHT22;24079;51.824;4.682;2023-06-14T13:56:17;29.60;82.00
37998;DHT22;24079;51.824;4.682;2023-06-14T13:58:43;29.40;81.90
37998;DHT22;24079;51.824;4.682;2023-06-14T14:01:09;29.60;82.60
37998;DHT22;24079;51.824;4.682;2023-06-14T14:03:36;29.70;81.60
37998;DHT22;24079;51.824;4.682;2023-06-14T14:06:03;29.90;81.70
37998;DHT22;24079;51.824;4.682;2023-06-14T14:08:30;30.10;82.80
37998;DHT22;24079;51.824;4.682;2023-06-14T14:10:56;30.00;82.70
37998;DHT22;24079;51.824;4.682;2023-06-14T14:13:22;30.00;83.20
37998;DHT22;24079;51.824;4.682;2023-06-14T14:15:48;30.10;82.60
37998;DHT22;24079;51.824;4.682;2023-06-14T14:18:15;29.90;81.90
37998;DHT22;24079;51.824;4.682;2023-06-14T14:20:41;30.10;83.60
37998;DHT22;24079;51.824;4.682;2023-06-14T14:23:07;29.90;83.30
37998;DHT22;24079;51.824;4.682;2023-06-14T14:25:33;30.10;83.30
37998;DHT22;24079;51.824;4.682;2023-06-14T14:27:59;30.10;83.40
37998;DHT22;24079;51.824;4.682;2023-06-14T14:30:25;29.70;82.70
37998;DHT22;24079;51.824;4.682;2023-06-14T14:32:51;29.90;83.40
37998;DHT22;24079;51.824;4.682;2023-06-14T14:35:18;29.80;83.90
37998;DHT22;24079;51.824;4.682;2023-06-14T14:37:44;29.60;83.20
37998;DHT22;24079;51.824;4.682;2023-06-14T14:40:10;29.60;83.50
37998;DHT22;24079;51.824;4.682;2023-06-14T14:42:37;29.70;83.60
37998;DHT22;24079;51.824;4.682;2023-06-14T14:45:03;29.70;83.90
37998;DHT22;24079;51.824;4.682;2023-06-14T14:47:30;29.60;84.20
37998;DHT22;24079;51.824;4.682;2023-06-14T14:49:56;29.40;83.30
37998;DHT22;24079;51.824;4.682;2023-06-14T14:52:23;29.20;84.30
37998;DHT22;24079;51.824;4.682;2023-06-14T14:54:48;29.30;84.80
37998;DHT22;24079;51.824;4.682;2023-06-14T14:57:14;29.20;84.30
37998;DHT22;24079;51.824;4.682;2023-06-14T14:59:40;28.90;85.10
37998;DHT22;24079;51.824;4.682;2023-06-14T15:02:06;28.80;84.80
37998;DHT22;24079;51.824;4.682;2023-06-14T15:04:31;28.70;85.70
37998;DHT22;24079;51.824;4.682;2023-06-14T15:06:57;28.90;85.10
37998;DHT22;24079;51.824;4.682;2023-06-14T15:09:23;28.80;85.90
37998;DHT22;24079;51.824;4.682;2023-06-14T15:11:49;28.70;86.70
37998;DHT22;24079;51.824;4.682;2023-06-14T15:14:14;28.40;85.60
37998;DHT22;24079;51.824;4.682;2023-06-14T15:16:41;28.30;86.40
37998;DHT22;24079;51.824;4.682;2023-06-14T15:19:07;28.40;87.60
37998;DHT22;24079;51.824;4.682;2023-06-14T15:21:33;28.30;85.30
37998;DHT22;24079;51.824;4.682;2023-06-14T15:23:59;28.40;85.60
37998;DHT22;24079;51.824;4.682;2023-06-14T15:26:25;28.50;86.30
37998;DHT22;24079;51.824;4.682;2023-06-14T15:28:51;28.40;86.20
37998;DHT22;24079;51.824;4.682;2023-06-14T15:31:18;28.50;87.40
37998;DHT22;24079;51.824;4.682;2023-06-14T15:33:44;28.60;89.10
37998;DHT22;24079;51.824;4.682;2023-06-14T15:36:09;28.60;87.90
37998;DHT22;24079;51.824;4.682;2023-06-14T15:38:35;28.60;86.50
37998;DHT22;24079;51.824;4.682;2023-06-14T15:41:01;28.30;85.70
37998;DHT22;24079;51.824;4.682;2023-06-14T15:43:27;28.10;87.10
37998;DHT22;24079;51.824;4.682;2023-06-14T15:45:53;28.10;86.40
37998;DHT22;24079;51.824;4.682;2023-06-14T15:48:19;28.00;87.00
37998;DHT22;24079;51.824;4.682;2023-06-14T15:50:45;28.20;87.10
37998;DHT22;24079;51.824;4.682;2023-06-14T15:53:12;28.20;86.30
37998;DHT22;24079;51.824;4.682;2023-06-14T15:55:38;28.10;87.30